Annandale, New York
Current Conditions -  °F | °C
As of 6:53 PM on Thursday 18 Dec 2014 (Local Time) from KPOU Reporting Station
Scattered Clouds Scattered Clouds  
Wind Chill: 29°   Ceiling: Unl
Heat Index: 37°   Visibility: 10mi
Dew Point: 25°   Wind: 12mph
Humidity: 62%   Direction: 270°W
Pressure: 29.95"   Gusts: NA
Location:  42.0124°N, 73.8998°W
Report Text: KPOU 182353Z AUTO 27010KT 10SM SCT038 03/M04 A2995 RMK AO2 SLP138 T00281039 10061 20022 50004 TSNO
Loading
Personal Weather Stations






























Interactive Weather Map New forecast layout! Learn more

10-Day Weather Forecast

Advertisements
Track Severe Weather on mobile